sensor_id;sensor_type;location;lat;lon;timestamp;temperature;humidity
27559;DHT22;15002;52.028;5.670;2024-03-08T00:02:16;6.20;99.90
27559;DHT22;15002;52.028;5.670;2024-03-08T00:04:42;6.30;99.90
27559;DHT22;15002;52.028;5.670;2024-03-08T00:07:08;5.90;99.90
27559;DHT22;15002;52.028;5.670;2024-03-08T00:09:33;5.60;99.90
27559;DHT22;15002;52.028;5.670;2024-03-08T00:11:59;5.70;99.90
27559;DHT22;15002;52.028;5.670;2024-03-08T00:14:25;6.00;99.90
27559;DHT22;15002;52.028;5.670;2024-03-08T00:16:50;6.10;99.90
27559;DHT22;15002;52.028;5.670;2024-03-08T00:19:18;6.10;99.90
27559;DHT22;15002;52.028;5.670;2024-03-08T00:21:43;6.10;99.90
27559;DHT22;15002;52.028;5.670;2024-03-08T00:24:09;5.90;99.90
27559;DHT22;15002;52.028;5.670;2024-03-08T00:26:35;5.90;99.90
27559;DHT22;15002;52.028;5.670;2024-03-08T00:29:00;5.70;99.90
27559;DHT22;15002;52.028;5.670;2024-03-08T00:31:26;5.50;99.90
27559;DHT22;15002;52.028;5.670;2024-03-08T00:33:52;5.40;99.90
27559;DHT22;15002;52.028;5.670;2024-03-08T00:36:18;5.60;99.90
27559;DHT22;15002;52.028;5.670;2024-03-08T00:38:43;5.70;99.90
27559;DHT22;15002;52.028;5.670;2024-03-08T00:41:09;5.40;99.90
27559;DHT22;15002;52.028;5.670;2024-03-08T00:43:35;5.70;99.90
27559;DHT22;15002;52.028;5.670;2024-03-08T00:46:00;5.70;99.90
27559;DHT22;15002;52.028;5.670;2024-03-08T00:48:26;5.70;99.90
27559;DHT22;15002;52.028;5.670;2024-03-08T00:50:53;5.60;99.90
27559;DHT22;15002;52.028;5.670;2024-03-08T00:53:19;5.60;99.90
27559;DHT22;15002;52.028;5.670;2024-03-08T00:55:44;5.40;99.90
27559;DHT22;15002;52.028;5.670;2024-03-08T00:58:12;5.80;99.90
27559;DHT22;15002;52.028;5.670;2024-03-08T01:00:38;5.60;99.90
27559;DHT22;15002;52.028;5.670;2024-03-08T01:03:04;5.30;99.90
27559;DHT22;15002;52.028;5.670;2024-03-08T01:05:30;5.60;99.90
27559;DHT22;15002;52.028;5.670;2024-03-08T01:07:56;5.50;99.90
27559;DHT22;15002;52.028;5.670;2024-03-08T01:10:22;5.50;99.90
27559;DHT22;15002;52.028;5.670;2024-03-08T01:12:48;5.40;99.90
27559;DHT22;15002;52.028;5.670;2024-03-08T01:15:15;5.10;99.90
27559;DHT22;15002;52.028;5.670;2024-03-08T01:17:41;5.50;99.90
27559;DHT22;15002;52.028;5.670;2024-03-08T01:20:09;5.30;99.90
27559;DHT22;15002;52.028;5.670;2024-03-08T01:22:38;5.00;99.90
27559;DHT22;15002;52.028;5.670;2024-03-08T01:25:04;5.10;99.90
27559;DHT22;15002;52.028;5.670;2024-03-08T01:27:30;4.80;99.90
27559;DHT22;15002;52.028;5.670;2024-03-08T01:29:56;5.10;99.90
27559;DHT22;15002;52.028;5.670;2024-03-08T01:32:22;4.90;99.90
27559;DHT22;15002;52.028;5.670;2024-03-08T01:34:49;5.10;99.90
27559;DHT22;15002;52.028;5.670;2024-03-08T01:37:15;5.10;99.90
27559;DHT22;15002;52.028;5.670;2024-03-08T01:39:40;5.10;99.90
27559;DHT22;15002;52.028;5.670;2024-03-08T01:42:06;4.80;99.90
27559;DHT22;15002;52.028;5.670;2024-03-08T01:44:32;4.70;99.90
27559;DHT22;15002;52.028;5.670;2024-03-08T01:46:57;4.60;99.90
27559;DHT22;15002;52.028;5.670;2024-03-08T01:49:24;4.70;99.90
27559;DHT22;15002;52.028;5.670;2024-03-08T01:51:51;4.90;99.90
27559;DHT22;15002;52.028;5.670;2024-03-08T01:54:18;4.80;99.90
27559;DHT22;15002;52.028;5.670;2024-03-08T01:56:45;4.70;99.90
27559;DHT22;15002;52.028;5.670;2024-03-08T01:59:12;4.60;99.90
27559;DHT22;15002;52.028;5.670;2024-03-08T02:01:38;4.40;99.90
27559;DHT22;15002;52.028;5.670;2024-03-08T02:04:03;4.50;99.90
27559;DHT22;15002;52.028;5.670;2024-03-08T02:06:31;4.70;99.90
27559;DHT22;15002;52.028;5.670;2024-03-08T02:08:57;4.70;99.90
27559;DHT22;15002;52.028;5.670;2024-03-08T02:11:22;4.60;99.90
27559;DHT22;15002;52.028;5.670;2024-03-08T02:13:48;4.80;99.90
27559;DHT22;15002;52.028;5.670;2024-03-08T02:16:20;4.90;99.90
27559;DHT22;15002;52.028;5.670;2024-03-08T02:18:46;4.40;99.90
27559;DHT22;15002;52.028;5.670;2024-03-08T02:21:12;4.40;99.90
27559;DHT22;15002;52.028;5.670;2024-03-08T02:23:40;4.40;99.90
27559;DHT22;15002;52.028;5.670;2024-03-08T02:26:05;4.30;99.90
27559;DHT22;15002;52.028;5.670;2024-03-08T02:28:33;4.40;99.90
27559;DHT22;15002;52.028;5.670;2024-03-08T02:30:59;4.20;99.90
27559;DHT22;15002;52.028;5.670;2024-03-08T02:33:26;4.40;99.90
27559;DHT22;15002;52.028;5.670;2024-03-08T02:35:52;4.20;99.90
27559;DHT22;15002;52.028;5.670;2024-03-08T02:38:19;4.20;99.90
27559;DHT22;15002;52.028;5.670;2024-03-08T02:40:46;4.40;99.90
27559;DHT22;15002;52.028;5.670;2024-03-08T02:43:13;4.20;99.90
27559;DHT22;15002;52.028;5.670;2024-03-08T02:45:43;4.40;99.90
27559;DHT22;15002;52.028;5.670;2024-03-08T02:48:09;4.30;99.90
27559;DHT22;15002;52.028;5.670;2024-03-08T02:50:36;4.40;99.90
27559;DHT22;15002;52.028;5.670;2024-03-08T02:53:02;4.40;99.90
27559;DHT22;15002;52.028;5.670;2024-03-08T02:55:28;4.30;99.90
27559;DHT22;15002;52.028;5.670;2024-03-08T02:57:55;4.00;99.90
27559;DHT22;15002;52.028;5.670;2024-03-08T03:00:21;4.20;99.90
27559;DHT22;15002;52.028;5.670;2024-03-08T03:02:51;4.20;99.90
27559;DHT22;15002;52.028;5.670;2024-03-08T03:05:20;4.10;99.90
27559;DHT22;15002;52.028;5.670;2024-03-08T03:07:45;4.20;99.90
27559;DHT22;15002;52.028;5.670;2024-03-08T03:10:11;4.00;99.90
27559;DHT22;15002;52.028;5.670;2024-03-08T03:12:38;4.10;99.90
27559;DHT22;15002;52.028;5.670;2024-03-08T03:15:04;4.00;99.90
27559;DHT22;15002;52.028;5.670;2024-03-08T03:17:30;4.00;99.90
27559;DHT22;15002;52.028;5.670;2024-03-08T03:19:55;4.00;99.90
27559;DHT22;15002;52.028;5.670;2024-03-08T03:22:21;4.30;99.90
27559;DHT22;15002;52.028;5.670;2024-03-08T03:24:47;4.50;99.90
27559;DHT22;15002;52.028;5.670;2024-03-08T03:27:15;4.40;99.90
27559;DHT22;15002;52.028;5.670;2024-03-08T03:29:42;4.20;99.90
27559;DHT22;15002;52.028;5.670;2024-03-08T03:32:14;4.10;99.90
27559;DHT22;15002;52.028;5.670;2024-03-08T03:34:41;4.20;99.90
27559;DHT22;15002;52.028;5.670;2024-03-08T03:37:08;4.30;99.90
27559;DHT22;15002;52.028;5.670;2024-03-08T03:39:38;3.80;99.90
27559;DHT22;15002;52.028;5.670;2024-03-08T03:42:17;3.90;99.90
27559;DHT22;15002;52.028;5.670;2024-03-08T03:44:47;3.70;99.90
27559;DHT22;15002;52.028;5.670;2024-03-08T03:47:13;4.00;99.90
27559;DHT22;15002;52.028;5.670;2024-03-08T03:49:43;3.70;99.90
27559;DHT22;15002;52.028;5.670;2024-03-08T03:52:09;3.90;99.90
27559;DHT22;15002;52.028;5.670;2024-03-08T03:54:35;4.10;99.90
27559;DHT22;15002;52.028;5.670;2024-03-08T03:57:01;4.20;99.90
27559;DHT22;15002;52.028;5.670;2024-03-08T03:59:28;4.30;99.90
27559;DHT22;15002;52.028;5.670;2024-03-08T04:01:54;4.30;99.90
27559;DHT22;15002;52.028;5.670;2024-03-08T04:04:20;4.10;99.90
27559;DHT22;15002;52.028;5.670;2024-03-08T04:06:46;3.80;99.90
27559;DHT22;15002;52.028;5.670;2024-03-08T04:09:12;4.00;99.90
27559;DHT22;15002;52.028;5.670;2024-03-08T04:11:38;3.80;99.90
27559;DHT22;15002;52.028;5.670;2024-03-08T04:14:04;3.80;99.90
27559;DHT22;15002;52.028;5.670;2024-03-08T04:16:31;3.90;99.90
27559;DHT22;15002;52.028;5.670;2024-03-08T04:19:00;4.00;99.90
27559;DHT22;15002;52.028;5.670;2024-03-08T04:21:30;3.90;99.90
27559;DHT22;15002;52.028;5.670;2024-03-08T04:23:56;3.70;99.90
27559;DHT22;15002;52.028;5.670;2024-03-08T04:26:22;3.90;99.90
27559;DHT22;15002;52.028;5.670;2024-03-08T04:28:47;4.00;99.90
27559;DHT22;15002;52.028;5.670;2024-03-08T04:31:13;4.10;99.90
27559;DHT22;15002;52.028;5.670;2024-03-08T04:33:39;3.70;99.90
27559;DHT22;15002;52.028;5.670;2024-03-08T04:36:05;3.80;99.90
27559;DHT22;15002;52.028;5.670;2024-03-08T04:38:31;4.00;99.90
27559;DHT22;15002;52.028;5.670;2024-03-08T04:40:57;3.90;99.90
27559;DHT22;15002;52.028;5.670;2024-03-08T04:43:23;4.00;99.90
27559;DHT22;15002;52.028;5.670;2024-03-08T04:45:52;4.00;99.90
27559;DHT22;15002;52.028;5.670;2024-03-08T04:48:19;3.70;99.90
27559;DHT22;15002;52.028;5.670;2024-03-08T04:50:46;3.70;99.90
27559;DHT22;15002;52.028;5.670;2024-03-08T04:53:11;3.90;99.90
27559;DHT22;15002;52.028;5.670;2024-03-08T04:55:37;3.80;99.90
27559;DHT22;15002;52.028;5.670;2024-03-08T04:58:03;3.70;99.90
27559;DHT22;15002;52.028;5.670;2024-03-08T05:00:31;3.70;99.90
27559;DHT22;15002;52.028;5.670;2024-03-08T05:02:58;3.80;99.90
27559;DHT22;15002;52.028;5.670;2024-03-08T05:05:23;3.70;99.90
27559;DHT22;15002;52.028;5.670;2024-03-08T05:07:50;3.80;99.90
27559;DHT22;15002;52.028;5.670;2024-03-08T05:10:16;3.50;99.90
27559;DHT22;15002;52.028;5.670;2024-03-08T05:12:43;3.20;99.90
27559;DHT22;15002;52.028;5.670;2024-03-08T05:15:09;3.20;99.90
27559;DHT22;15002;52.028;5.670;2024-03-08T05:17:35;3.30;99.90
27559;DHT22;15002;52.028;5.670;2024-03-08T05:20:01;3.60;99.90
27559;DHT22;15002;52.028;5.670;2024-03-08T05:22:27;3.60;99.90
27559;DHT22;15002;52.028;5.670;2024-03-08T05:24:53;3.50;99.90
27559;DHT22;15002;52.028;5.670;2024-03-08T05:27:19;3.70;99.90
27559;DHT22;15002;52.028;5.670;2024-03-08T05:29:44;3.60;99.90
27559;DHT22;15002;52.028;5.670;2024-03-08T05:32:11;3.40;99.90
27559;DHT22;15002;52.028;5.670;2024-03-08T05:34:37;3.60;99.90
27559;DHT22;15002;52.028;5.670;2024-03-08T05:37:04;3.70;99.90
27559;DHT22;15002;52.028;5.670;2024-03-08T05:39:29;3.80;99.90
27559;DHT22;15002;52.028;5.670;2024-03-08T05:41:55;3.80;99.90
27559;DHT22;15002;52.028;5.670;2024-03-08T05:44:21;3.60;99.90
27559;DHT22;15002;52.028;5.670;2024-03-08T05:46:47;3.70;99.90
27559;DHT22;15002;52.028;5.670;2024-03-08T05:49:13;3.60;99.90
27559;DHT22;15002;52.028;5.670;2024-03-08T05:51:39;3.60;99.90
27559;DHT22;15002;52.028;5.670;2024-03-08T05:54:07;3.60;99.90
27559;DHT22;15002;52.028;5.670;2024-03-08T05:56:34;3.60;99.90
27559;DHT22;15002;52.028;5.670;2024-03-08T05:59:00;3.70;99.90
27559;DHT22;15002;52.028;5.670;2024-03-08T06:01:26;3.50;99.90
27559;DHT22;15002;52.028;5.670;2024-03-08T06:03:53;3.70;99.90
27559;DHT22;15002;52.028;5.670;2024-03-08T06:06:21;3.60;99.90
27559;DHT22;15002;52.028;5.670;2024-03-08T06:08:48;3.50;99.90
27559;DHT22;15002;52.028;5.670;2024-03-08T06:11:15;3.30;99.90
27559;DHT22;15002;52.028;5.670;2024-03-08T06:13:42;3.40;99.90
27559;DHT22;15002;52.028;5.670;2024-03-08T06:16:08;3.30;99.90
27559;DHT22;15002;52.028;5.670;2024-03-08T06:18:34;3.10;99.90
27559;DHT22;15002;52.028;5.670;2024-03-08T06:21:03;2.90;99.90
27559;DHT22;15002;52.028;5.670;2024-03-08T06:23:31;3.00;99.90
27559;DHT22;15002;52.028;5.670;2024-03-08T06:25:57;3.20;99.90
27559;DHT22;15002;52.028;5.670;2024-03-08T06:28:23;3.20;99.90
27559;DHT22;15002;52.028;5.670;2024-03-08T06:30:48;3.30;99.90
27559;DHT22;15002;52.028;5.670;2024-03-08T06:33:16;2.90;99.90
27559;DHT22;15002;52.028;5.670;2024-03-08T06:35:42;3.20;99.90
27559;DHT22;15002;52.028;5.670;2024-03-08T06:38:07;3.10;99.90
27559;DHT22;15002;52.028;5.670;2024-03-08T06:40:33;3.30;99.90
27559;DHT22;15002;52.028;5.670;2024-03-08T06:42:58;3.60;99.90
27559;DHT22;15002;52.028;5.670;2024-03-08T06:45:24;3.40;99.90
27559;DHT22;15002;52.028;5.670;2024-03-08T06:47:51;3.40;99.90
27559;DHT22;15002;52.028;5.670;2024-03-08T06:50:17;3.40;99.90
27559;DHT22;15002;52.028;5.670;2024-03-08T06:52:42;3.80;99.90
27559;DHT22;15002;52.028;5.670;2024-03-08T06:55:10;3.70;99.90
27559;DHT22;15002;52.028;5.670;2024-03-08T06:57:41;4.10;99.90
27559;DHT22;15002;52.028;5.670;2024-03-08T07:00:08;4.30;99.90
27559;DHT22;15002;52.028;5.670;2024-03-08T07:02:44;4.60;99.90
27559;DHT22;15002;52.028;5.670;2024-03-08T07:05:11;4.70;99.90
27559;DHT22;15002;52.028;5.670;2024-03-08T07:07:37;4.50;99.90
27559;DHT22;15002;52.028;5.670;2024-03-08T07:10:03;4.90;99.90
27559;DHT22;15002;52.028;5.670;2024-03-08T07:12:30;5.00;99.90
27559;DHT22;15002;52.028;5.670;2024-03-08T07:14:55;5.30;99.90
27559;DHT22;15002;52.028;5.670;2024-03-08T07:17:21;5.50;99.90
27559;DHT22;15002;52.028;5.670;2024-03-08T07:19:47;5.40;99.90
27559;DHT22;15002;52.028;5.670;2024-03-08T07:22:13;5.50;99.90
27559;DHT22;15002;52.028;5.670;2024-03-08T07:24:40;5.50;99.90
27559;DHT22;15002;52.028;5.670;2024-03-08T07:27:25;5.40;99.90
27559;DHT22;15002;52.028;5.670;2024-03-08T07:29:50;5.60;99.90
27559;DHT22;15002;52.028;5.670;2024-03-08T07:32:16;5.70;99.90
27559;DHT22;15002;52.028;5.670;2024-03-08T07:34:49;5.70;99.90
27559;DHT22;15002;52.028;5.670;2024-03-08T07:37:16;5.80;99.90
27559;DHT22;15002;52.028;5.670;2024-03-08T07:39:42;5.80;99.90
27559;DHT22;15002;52.028;5.670;2024-03-08T07:42:09;5.90;99.90
27559;DHT22;15002;52.028;5.670;2024-03-08T07:44:36;6.00;99.90
27559;DHT22;15002;52.028;5.670;2024-03-08T07:47:02;5.90;99.90
27559;DHT22;15002;52.028;5.670;2024-03-08T07:49:29;5.70;99.90
27559;DHT22;15002;52.028;5.670;2024-03-08T07:51:58;5.80;99.90
27559;DHT22;15002;52.028;5.670;2024-03-08T07:54:24;5.60;99.90
27559;DHT22;15002;52.028;5.670;2024-03-08T07:56:51;5.50;99.90
27559;DHT22;15002;52.028;5.670;2024-03-08T07:59:18;5.70;99.90
27559;DHT22;15002;52.028;5.670;2024-03-08T08:01:43;5.80;99.90
27559;DHT22;15002;52.028;5.670;2024-03-08T08:04:10;5.70;99.90
27559;DHT22;15002;52.028;5.670;2024-03-08T08:06:38;5.60;99.90
27559;DHT22;15002;52.028;5.670;2024-03-08T08:09:07;5.70;99.90
27559;DHT22;15002;52.028;5.670;2024-03-08T08:11:47;6.20;99.90
27559;DHT22;15002;52.028;5.670;2024-03-08T08:14:13;6.00;99.90
27559;DHT22;15002;52.028;5.670;2024-03-08T08:16:39;5.90;99.90
27559;DHT22;15002;52.028;5.670;2024-03-08T08:19:13;6.00;99.90
27559;DHT22;15002;52.028;5.670;2024-03-08T08:21:38;6.30;99.90
27559;DHT22;15002;52.028;5.670;2024-03-08T08:24:04;6.50;99.90
27559;DHT22;15002;52.028;5.670;2024-03-08T08:26:30;7.00;99.90
27559;DHT22;15002;52.028;5.670;2024-03-08T08:28:56;7.10;99.90
27559;DHT22;15002;52.028;5.670;2024-03-08T08:31:21;7.20;99.90
27559;DHT22;15002;52.028;5.670;2024-03-08T08:33:47;7.10;99.90
27559;DHT22;15002;52.028;5.670;2024-03-08T08:36:17;6.80;99.90
27559;DHT22;15002;52.028;5.670;2024-03-08T08:38:44;6.80;99.90
27559;DHT22;15002;52.028;5.670;2024-03-08T08:41:10;7.40;99.90
27559;DHT22;15002;52.028;5.670;2024-03-08T08:43:36;7.30;99.90
27559;DHT22;15002;52.028;5.670;2024-03-08T08:46:02;7.20;99.90
27559;DHT22;15002;52.028;5.670;2024-03-08T08:48:28;7.70;99.90
27559;DHT22;15002;52.028;5.670;2024-03-08T08:50:54;7.90;99.90
27559;DHT22;15002;52.028;5.670;2024-03-08T08:53:20;8.00;99.90
27559;DHT22;15002;52.028;5.670;2024-03-08T08:55:47;7.80;99.90
27559;DHT22;15002;52.028;5.670;2024-03-08T08:58:13;7.70;99.90
27559;DHT22;15002;52.028;5.670;2024-03-08T09:00:39;7.40;99.90
27559;DHT22;15002;52.028;5.670;2024-03-08T09:03:05;7.30;99.90
27559;DHT22;15002;52.028;5.670;2024-03-08T09:05:32;7.70;99.90
27559;DHT22;15002;52.028;5.670;2024-03-08T09:07:59;7.50;99.90
27559;DHT22;15002;52.028;5.670;2024-03-08T09:10:25;7.60;99.90
27559;DHT22;15002;52.028;5.670;2024-03-08T09:12:51;7.90;99.90
27559;DHT22;15002;52.028;5.670;2024-03-08T09:15:16;8.40;99.90
27559;DHT22;15002;52.028;5.670;2024-03-08T09:17:43;8.80;99.90
27559;DHT22;15002;52.028;5.670;2024-03-08T09:20:10;8.50;99.90
27559;DHT22;15002;52.028;5.670;2024-03-08T09:22:40;8.20;99.90
27559;DHT22;15002;52.028;5.670;2024-03-08T09:25:06;8.30;99.90
27559;DHT22;15002;52.028;5.670;2024-03-08T09:27:32;8.60;99.90
27559;DHT22;15002;52.028;5.670;2024-03-08T09:29:59;8.80;99.90
27559;DHT22;15002;52.028;5.670;2024-03-08T09:32:25;9.10;99.90
27559;DHT22;15002;52.028;5.670;2024-03-08T09:34:52;9.40;99.90
27559;DHT22;15002;52.028;5.670;2024-03-08T09:37:17;9.80;99.90
27559;DHT22;15002;52.028;5.670;2024-03-08T09:39:44;10.10;99.90
27559;DHT22;15002;52.028;5.670;2024-03-08T09:42:10;9.90;99.90
27559;DHT22;15002;52.028;5.670;2024-03-08T09:44:44;9.90;99.90
27559;DHT22;15002;52.028;5.670;2024-03-08T09:47:13;10.00;99.90
27559;DHT22;15002;52.028;5.670;2024-03-08T09:49:39;10.10;99.90
27559;DHT22;15002;52.028;5.670;2024-03-08T09:52:07;9.60;99.90
27559;DHT22;15002;52.028;5.670;2024-03-08T09:54:33;9.80;99.90
27559;DHT22;15002;52.028;5.670;2024-03-08T09:56:59;9.80;99.90
27559;DHT22;15002;52.028;5.670;2024-03-08T09:59:25;10.10;99.90
27559;DHT22;15002;52.028;5.670;2024-03-08T10:01:53;10.30;99.90
27559;DHT22;15002;52.028;5.670;2024-03-08T10:04:22;10.50;99.90
27559;DHT22;15002;52.028;5.670;2024-03-08T10:06:48;10.50;99.90
27559;DHT22;15002;52.028;5.670;2024-03-08T10:09:14;10.30;99.90
27559;DHT22;15002;52.028;5.670;2024-03-08T10:11:41;10.10;99.90
27559;DHT22;15002;52.028;5.670;2024-03-08T10:14:10;10.00;99.90
27559;DHT22;15002;52.028;5.670;2024-03-08T10:16:38;10.00;99.90
27559;DHT22;15002;52.028;5.670;2024-03-08T10:19:05;10.30;99.90
27559;DHT22;15002;52.028;5.670;2024-03-08T10:21:32;10.40;99.90
27559;DHT22;15002;52.028;5.670;2024-03-08T10:23:58;10.90;99.90
27559;DHT22;15002;52.028;5.670;2024-03-08T10:26:25;10.90;99.90
27559;DHT22;15002;52.028;5.670;2024-03-08T10:28:53;10.90;99.90
27559;DHT22;15002;52.028;5.670;2024-03-08T10:31:20;10.90;99.90
27559;DHT22;15002;52.028;5.670;2024-03-08T10:33:46;10.90;99.90
27559;DHT22;15002;52.028;5.670;2024-03-08T10:36:13;10.80;99.90
27559;DHT22;15002;52.028;5.670;2024-03-08T10:38:41;11.10;99.90
27559;DHT22;15002;52.028;5.670;2024-03-08T10:41:09;11.00;99.90
27559;DHT22;15002;52.028;5.670;2024-03-08T10:43:47;11.00;99.90
27559;DHT22;15002;52.028;5.670;2024-03-08T10:46:48;10.90;99.90
27559;DHT22;15002;52.028;5.670;2024-03-08T10:49:17;10.90;99.90
27559;DHT22;15002;52.028;5.670;2024-03-08T10:51:43;11.10;99.90
27559;DHT22;15002;52.028;5.670;2024-03-08T10:54:10;10.80;99.90
27559;DHT22;15002;52.028;5.670;2024-03-08T10:56:37;10.90;99.90
27559;DHT22;15002;52.028;5.670;2024-03-08T10:59:06;11.10;99.90
27559;DHT22;15002;52.028;5.670;2024-03-08T11:01:34;11.10;99.90
27559;DHT22;15002;52.028;5.670;2024-03-08T11:03:59;11.40;99.90
27559;DHT22;15002;52.028;5.670;2024-03-08T11:06:41;11.30;99.90
27559;DHT22;15002;52.028;5.670;2024-03-08T11:09:33;11.20;99.90
27559;DHT22;15002;52.028;5.670;2024-03-08T11:12:25;11.00;99.90
27559;DHT22;15002;52.028;5.670;2024-03-08T11:14:56;10.80;99.90
27559;DHT22;15002;52.028;5.670;2024-03-08T11:19:56;11.10;99.90
27559;DHT22;15002;52.028;5.670;2024-03-08T11:22:29;11.20;99.90
27559;DHT22;15002;52.028;5.670;2024-03-08T11:25:09;11.30;99.90
27559;DHT22;15002;52.028;5.670;2024-03-08T11:27:38;11.00;99.90
27559;DHT22;15002;52.028;5.670;2024-03-08T11:30:05;11.00;99.90
27559;DHT22;15002;52.028;5.670;2024-03-08T11:32:38;11.00;99.90
27559;DHT22;15002;52.028;5.670;2024-03-08T11:35:08;11.40;99.90
27559;DHT22;15002;52.028;5.670;2024-03-08T11:37:44;11.60;99.90
27559;DHT22;15002;52.028;5.670;2024-03-08T11:40:13;11.30;99.90
27559;DHT22;15002;52.028;5.670;2024-03-08T11:42:45;10.80;99.90
27559;DHT22;15002;52.028;5.670;2024-03-08T11:45:13;10.90;99.90
27559;DHT22;15002;52.028;5.670;2024-03-08T11:47:42;11.10;99.90
27559;DHT22;15002;52.028;5.670;2024-03-08T11:50:10;11.00;99.90
27559;DHT22;15002;52.028;5.670;2024-03-08T11:52:37;10.70;99.90
27559;DHT22;15002;52.028;5.670;2024-03-08T11:55:03;10.70;99.90
27559;DHT22;15002;52.028;5.670;2024-03-08T11:57:31;10.70;99.90
27559;DHT22;15002;52.028;5.670;2024-03-08T11:59:58;10.70;99.90
27559;DHT22;15002;52.028;5.670;2024-03-08T12:02:32;10.80;99.90
27559;DHT22;15002;52.028;5.670;2024-03-08T12:04:59;10.80;99.90
27559;DHT22;15002;52.028;5.670;2024-03-08T12:07:26;10.40;99.90
27559;DHT22;15002;52.028;5.670;2024-03-08T12:10:18;10.70;99.90
27559;DHT22;15002;52.028;5.670;2024-03-08T12:12:49;10.80;99.90
27559;DHT22;15002;52.028;5.670;2024-03-08T12:15:16;11.20;99.90
27559;DHT22;15002;52.028;5.670;2024-03-08T12:17:44;11.20;99.90
27559;DHT22;15002;52.028;5.670;2024-03-08T12:20:20;11.30;99.90
27559;DHT22;15002;52.028;5.670;2024-03-08T12:22:52;11.30;99.90
27559;DHT22;15002;52.028;5.670;2024-03-08T12:25:19;11.30;99.90
27559;DHT22;15002;52.028;5.670;2024-03-08T12:27:46;11.00;99.90
27559;DHT22;15002;52.028;5.670;2024-03-08T12:30:23;11.10;99.90
27559;DHT22;15002;52.028;5.670;2024-03-08T12:32:52;11.20;99.90
27559;DHT22;15002;52.028;5.670;2024-03-08T12:35:25;11.00;99.90
27559;DHT22;15002;52.028;5.670;2024-03-08T12:37:53;11.00;99.90
27559;DHT22;15002;52.028;5.670;2024-03-08T12:40:25;11.20;99.90
27559;DHT22;15002;52.028;5.670;2024-03-08T12:42:52;11.30;99.90
27559;DHT22;15002;52.028;5.670;2024-03-08T12:45:17;11.40;99.90
27559;DHT22;15002;52.028;5.670;2024-03-08T12:47:43;11.50;99.90
27559;DHT22;15002;52.028;5.670;2024-03-08T12:50:10;11.40;99.90
27559;DHT22;15002;52.028;5.670;2024-03-08T12:52:36;11.30;99.90
27559;DHT22;15002;52.028;5.670;2024-03-08T12:55:02;11.60;99.90
27559;DHT22;15002;52.028;5.670;2024-03-08T12:57:28;11.70;99.90
27559;DHT22;15002;52.028;5.670;2024-03-08T12:59:54;11.70;99.90
27559;DHT22;15002;52.028;5.670;2024-03-08T13:02:20;11.30;99.90
27559;DHT22;15002;52.028;5.670;2024-03-08T13:04:46;11.30;99.90
27559;DHT22;15002;52.028;5.670;2024-03-08T13:07:21;11.30;99.90
27559;DHT22;15002;52.028;5.670;2024-03-08T13:09:47;11.10;99.90
27559;DHT22;15002;52.028;5.670;2024-03-08T13:12:12;10.90;99.90
27559;DHT22;15002;52.028;5.670;2024-03-08T13:14:40;10.80;99.90
27559;DHT22;15002;52.028;5.670;2024-03-08T13:17:06;10.50;99.90
27559;DHT22;15002;52.028;5.670;2024-03-08T13:19:36;10.70;99.90
27559;DHT22;15002;52.028;5.670;2024-03-08T13:22:04;11.20;99.90
27559;DHT22;15002;52.028;5.670;2024-03-08T13:24:30;11.20;99.90
27559;DHT22;15002;52.028;5.670;2024-03-08T13:26:56;11.20;99.90
27559;DHT22;15002;52.028;5.670;2024-03-08T13:29:22;11.20;99.90
27559;DHT22;15002;52.028;5.670;2024-03-08T13:31:48;11.30;99.90
27559;DHT22;15002;52.028;5.670;2024-03-08T13:34:17;11.70;99.90
27559;DHT22;15002;52.028;5.670;2024-03-08T13:36:43;11.60;99.90
27559;DHT22;15002;52.028;5.670;2024-03-08T13:39:10;11.40;99.90
27559;DHT22;15002;52.028;5.670;2024-03-08T13:41:41;11.10;99.90
27559;DHT22;15002;52.028;5.670;2024-03-08T13:44:10;11.00;99.90
27559;DHT22;15002;52.028;5.670;2024-03-08T13:46:36;11.00;99.90
27559;DHT22;15002;52.028;5.670;2024-03-08T13:49:06;10.90;99.90
27559;DHT22;15002;52.028;5.670;2024-03-08T13:51:34;10.90;99.90
27559;DHT22;15002;52.028;5.670;2024-03-08T13:54:00;10.90;99.90
27559;DHT22;15002;52.028;5.670;2024-03-08T13:56:31;11.00;99.90
27559;DHT22;15002;52.028;5.670;2024-03-08T13:58:57;11.20;99.90
27559;DHT22;15002;52.028;5.670;2024-03-08T14:01:23;11.10;99.90
27559;DHT22;15002;52.028;5.670;2024-03-08T14:03:49;11.00;99.90
27559;DHT22;15002;52.028;5.670;2024-03-08T14:06:16;11.10;99.90
27559;DHT22;15002;52.028;5.670;2024-03-08T14:08:41;11.30;99.90
27559;DHT22;15002;52.028;5.670;2024-03-08T14:11:07;11.50;99.90
27559;DHT22;15002;52.028;5.670;2024-03-08T14:13:41;11.40;99.90
27559;DHT22;15002;52.028;5.670;2024-03-08T14:16:10;11.50;99.90
27559;DHT22;15002;52.028;5.670;2024-03-08T14:18:36;11.50;99.90
27559;DHT22;15002;52.028;5.670;2024-03-08T14:21:03;11.50;99.90
27559;DHT22;15002;52.028;5.670;2024-03-08T14:23:29;11.30;99.90
27559;DHT22;15002;52.028;5.670;2024-03-08T14:25:55;11.40;99.90
27559;DHT22;15002;52.028;5.670;2024-03-08T14:28:21;11.50;99.90
27559;DHT22;15002;52.028;5.670;2024-03-08T14:30:48;11.40;99.90
27559;DHT22;15002;52.028;5.670;2024-03-08T14:33:14;11.50;99.90
27559;DHT22;15002;52.028;5.670;2024-03-08T14:35:41;11.60;99.90
27559;DHT22;15002;52.028;5.670;2024-03-08T14:38:07;11.50;99.90
27559;DHT22;15002;52.028;5.670;2024-03-08T14:40:37;11.50;99.90
27559;DHT22;15002;52.028;5.670;2024-03-08T14:43:03;11.30;99.90
27559;DHT22;15002;52.028;5.670;2024-03-08T14:45:30;11.60;99.90
27559;DHT22;15002;52.028;5.670;2024-03-08T14:47:56;11.30;99.90
27559;DHT22;15002;52.028;5.670;2024-03-08T14:50:23;11.20;99.90
27559;DHT22;15002;52.028;5.670;2024-03-08T14:52:50;11.30;99.90
27559;DHT22;15002;52.028;5.670;2024-03-08T14:55:19;11.30;99.90
27559;DHT22;15002;52.028;5.670;2024-03-08T14:57:50;11.40;99.90
27559;DHT22;15002;52.028;5.670;2024-03-08T15:00:18;11.70;99.90
27559;DHT22;15002;52.028;5.670;2024-03-08T15:02:59;11.30;99.90
27559;DHT22;15002;52.028;5.670;2024-03-08T15:05:25;11.20;99.90
27559;DHT22;15002;52.028;5.670;2024-03-08T15:07:58;11.20;99.90
27559;DHT22;15002;52.028;5.670;2024-03-08T15:10:28;11.10;99.90
27559;DHT22;15002;52.028;5.670;2024-03-08T15:12:54;11.30;99.90
27559;DHT22;15002;52.028;5.670;2024-03-08T15:15:21;11.30;99.90
27559;DHT22;15002;52.028;5.670;2024-03-08T15:17:49;11.30;99.90
27559;DHT22;15002;52.028;5.670;2024-03-08T15:20:16;11.40;99.90
27559;DHT22;15002;52.028;5.670;2024-03-08T15:22:50;11.40;99.90
27559;DHT22;15002;52.028;5.670;2024-03-08T15:25:16;11.10;99.90
27559;DHT22;15002;52.028;5.670;2024-03-08T15:28:08;11.20;99.90
27559;DHT22;15002;52.028;5.670;2024-03-08T15:30:40;11.60;99.90
27559;DHT22;15002;52.028;5.670;2024-03-08T15:33:08;11.80;99.90
27559;DHT22;15002;52.028;5.670;2024-03-08T15:35:36;11.40;99.90
27559;DHT22;15002;52.028;5.670;2024-03-08T15:38:03;11.40;99.90
27559;DHT22;15002;52.028;5.670;2024-03-08T15:40:29;11.90;99.90
27559;DHT22;15002;52.028;5.670;2024-03-08T15:42:57;12.10;99.90
27559;DHT22;15002;52.028;5.670;2024-03-08T15:45:23;11.90;99.90